createdAt,value
2017-04-24T00:00:08.562Z,0
2017-04-24T00:00:34.640Z,0
2017-04-24T00:01:00.723Z,0
2017-04-24T00:01:26.803Z,0
2017-04-24T00:01:52.908Z,0
2017-04-24T00:02:19.012Z,0
2017-04-24T00:02:45.092Z,0
2017-04-24T00:03:11.196Z,0
2017-04-24T00:03:37.296Z,0
2017-04-24T00:04:03.452Z,0
2017-04-24T00:04:29.573Z,0
2017-04-24T00:04:55.677Z,0
2017-04-24T00:05:21.780Z,0
2017-04-24T00:05:47.882Z,0
2017-04-24T00:06:14.007Z,0
2017-04-24T00:06:40.106Z,0
2017-04-24T00:07:06.209Z,0
2017-04-24T00:07:32.382Z,0
2017-04-24T00:07:58.486Z,0
2017-04-24T00:08:24.644Z,0
2017-04-24T00:08:50.763Z,0
2017-04-24T00:09:16.865Z,0
2017-04-24T00:09:42.973Z,0
2017-04-24T00:10:09.097Z,0
2017-04-24T00:10:35.176Z,0
2017-04-24T00:11:01.258Z,0
2017-04-24T00:11:27.337Z,0
2017-04-24T00:11:53.443Z,0
2017-04-24T00:12:19.520Z,0
2017-04-24T00:12:45.625Z,0
2017-04-24T00:13:11.706Z,0
2017-04-24T00:13:37.833Z,0
2017-04-24T00:14:03.981Z,0
2017-04-24T00:14:30.127Z,0
2017-04-24T00:14:56.230Z,0
2017-04-24T00:15:22.357Z,0
2017-04-24T00:15:48.438Z,0
2017-04-24T00:16:14.515Z,0
2017-04-24T00:16:40.642Z,0
2017-04-24T00:17:06.746Z,0
2017-04-24T00:17:32.852Z,0
2017-04-24T00:17:58.981Z,0
2017-04-24T00:18:25.107Z,0
2017-04-24T00:18:51.212Z,0
2017-04-24T00:19:17.315Z,0
2017-04-24T00:19:43.442Z,0
2017-04-24T00:20:09.545Z,0
2017-04-24T00:20:35.626Z,0
2017-04-24T00:21:01.708Z,0
2017-04-24T00:21:27.833Z,0
2017-04-24T00:21:53.912Z,0
2017-04-24T00:22:20.017Z,0
2017-04-24T00:22:46.093Z,0
2017-04-24T00:23:12.173Z,0
2017-04-24T00:23:38.321Z,0
2017-04-24T00:24:04.469Z,0
2017-04-24T00:24:30.595Z,0
2017-04-24T00:24:56.697Z,0
2017-04-24T00:25:22.804Z,0
2017-04-24T00:25:48.883Z,0
2017-04-24T00:26:14.984Z,0
2017-04-24T00:26:41.088Z,0
2017-04-24T00:27:07.191Z,0
2017-04-24T00:27:33.271Z,0
2017-04-24T00:27:59.423Z,0
2017-04-24T00:28:25.573Z,0
2017-04-24T00:28:51.678Z,0
2017-04-24T00:29:17.784Z,0
2017-04-24T00:29:43.890Z,0
2017-04-24T00:30:09.966Z,0
2017-04-24T00:30:36.073Z,0
2017-04-24T00:31:02.174Z,0
2017-04-24T00:31:28.253Z,0
2017-04-24T00:31:54.331Z,0
2017-04-24T00:32:20.433Z,0
2017-04-24T00:32:46.557Z,0
2017-04-24T00:33:12.705Z,0
2017-04-24T00:33:38.834Z,0
2017-04-24T00:34:04.960Z,0
2017-04-24T00:34:31.086Z,0
2017-04-24T00:34:57.189Z,0
2017-04-24T00:35:23.316Z,0
2017-04-24T00:35:49.440Z,0
2017-04-24T00:36:15.567Z,0
2017-04-24T00:36:41.671Z,0
2017-04-24T00:37:07.775Z,0
2017-04-24T00:37:33.879Z,0
2017-04-24T00:38:00.004Z,0
2017-04-24T00:38:26.110Z,0
2017-04-24T00:38:52.236Z,0
2017-04-24T00:39:18.344Z,0
2017-04-24T00:39:44.471Z,0
2017-04-24T00:40:10.598Z,0
2017-04-24T00:40:36.677Z,0
2017-04-24T00:41:02.757Z,0
2017-04-24T00:41:28.836Z,0
2017-04-24T00:41:54.920Z,0
2017-04-24T00:42:21.002Z,0
2017-04-24T00:42:47.083Z,0
2017-04-24T00:43:13.187Z,0
2017-04-24T00:43:39.291Z,0
2017-04-24T00:44:05.395Z,0
2017-04-24T00:44:31.547Z,0
2017-04-24T00:44:57.652Z,0
2017-04-24T00:45:23.736Z,0
2017-04-24T00:45:49.837Z,0
2017-04-24T00:46:15.920Z,0
2017-04-24T00:46:42.000Z,0
2017-04-24T00:47:08.164Z,0
2017-04-24T00:47:34.292Z,0
2017-04-24T00:48:00.374Z,0
2017-04-24T00:48:26.500Z,0
2017-04-24T00:48:52.638Z,0
2017-04-24T00:49:18.745Z,0
2017-04-24T00:49:44.847Z,0
2017-04-24T00:50:10.974Z,0
2017-04-24T00:50:37.079Z,0
2017-04-24T00:51:03.183Z,0
2017-04-24T00:51:29.263Z,0
2017-04-24T00:51:55.345Z,0
2017-04-24T00:52:21.447Z,0
2017-04-24T00:52:47.553Z,0
2017-04-24T00:53:13.681Z,0
2017-04-24T00:53:39.785Z,0
2017-04-24T00:54:05.888Z,0
2017-04-24T00:54:31.971Z,0
2017-04-24T00:54:58.051Z,0
2017-04-24T00:55:24.155Z,0
2017-04-24T00:55:50.283Z,0
2017-04-24T00:56:16.366Z,0
2017-04-24T00:56:42.470Z,0
2017-04-24T00:57:08.576Z,0
2017-04-24T00:57:34.655Z,0
2017-04-24T00:58:00.736Z,0
2017-04-24T00:58:26.839Z,0
2017-04-24T00:58:52.944Z,0
2017-04-24T00:59:19.071Z,0
2017-04-24T00:59:45.174Z,0
2017-04-24T01:00:11.254Z,0
2017-04-24T01:00:37.379Z,0
2017-04-24T01:01:03.457Z,0
2017-04-24T01:01:29.537Z,0
2017-04-24T01:01:55.616Z,0
2017-04-24T01:02:21.721Z,0
2017-04-24T01:02:47.826Z,0
2017-04-24T01:03:13.975Z,0
2017-04-24T01:03:40.102Z,0
2017-04-24T01:04:06.182Z,0
2017-04-24T01:04:32.288Z,0
2017-04-24T01:04:58.394Z,0
2017-04-24T01:05:24.495Z,0
2017-04-24T01:05:50.574Z,0
2017-04-24T01:06:16.654Z,0
2017-04-24T01:06:42.734Z,0
2017-04-24T01:07:08.816Z,0
2017-04-24T01:07:34.940Z,0
2017-04-24T01:08:01.089Z,0
2017-04-24T01:08:27.191Z,0
2017-04-24T01:08:53.293Z,0
2017-04-24T01:09:19.400Z,0
2017-04-24T01:09:45.526Z,0
2017-04-24T01:10:11.627Z,0
2017-04-24T01:10:37.751Z,0
2017-04-24T01:11:03.832Z,0
2017-04-24T01:11:29.958Z,0
2017-04-24T01:11:56.038Z,0
2017-04-24T01:12:22.142Z,0
2017-04-24T01:12:48.224Z,0
2017-04-24T01:13:14.325Z,0
2017-04-24T01:13:40.406Z,0
2017-04-24T01:14:06.488Z,0
2017-04-24T01:14:32.568Z,0
2017-04-24T01:14:58.649Z,0
2017-04-24T01:15:24.726Z,0
2017-04-24T01:15:50.852Z,0
2017-04-24T01:16:16.934Z,0
2017-04-24T01:16:43.044Z,0
2017-04-24T01:17:09.114Z,0
2017-04-24T01:17:35.241Z,0
2017-04-24T01:18:01.346Z,0
2017-04-24T01:18:27.474Z,0
2017-04-24T01:18:53.598Z,0
2017-04-24T01:19:19.698Z,0
2017-04-24T01:19:45.805Z,0
2017-04-24T01:20:11.955Z,0
2017-04-24T01:20:38.036Z,0
2017-04-24T01:21:04.114Z,0
2017-04-24T01:21:30.222Z,0
2017-04-24T01:21:56.325Z,0
2017-04-24T01:22:22.404Z,0
2017-04-24T01:22:48.486Z,0
2017-04-24T01:23:14.591Z,0
2017-04-24T01:23:40.739Z,0
2017-04-24T01:24:06.842Z,0
2017-04-24T01:24:32.972Z,0
2017-04-24T01:24:59.073Z,0
2017-04-24T01:25:25.152Z,0
2017-04-24T01:25:51.256Z,0
2017-04-24T01:26:17.339Z,0
2017-04-24T01:26:43.441Z,0
2017-04-24T01:27:09.521Z,0
2017-04-24T01:27:35.622Z,0
2017-04-24T01:28:01.754Z,0
2017-04-24T01:28:27.902Z,0
2017-04-24T01:28:54.052Z,0
2017-04-24T01:29:20.176Z,0
2017-04-24T01:29:46.258Z,0
2017-04-24T01:30:12.361Z,0
2017-04-24T01:30:38.449Z,0
2017-04-24T01:31:04.552Z,0
2017-04-24T01:31:30.633Z,0
2017-04-24T01:31:56.759Z,0
2017-04-24T01:32:22.841Z,0
2017-04-24T01:32:48.966Z,0
2017-04-24T01:33:15.047Z,0
2017-04-24T01:33:41.193Z,0
2017-04-24T01:34:07.296Z,0
2017-04-24T01:34:33.445Z,0
2017-04-24T01:34:59.547Z,0
2017-04-24T01:35:25.627Z,0
2017-04-24T01:35:51.732Z,0
2017-04-24T01:36:17.814Z,0
2017-04-24T01:36:43.918Z,0
2017-04-24T01:37:09.999Z,0
2017-04-24T01:37:36.077Z,0
2017-04-24T01:38:02.179Z,0
2017-04-24T01:38:28.306Z,0
2017-04-24T01:38:54.432Z,0
2017-04-24T01:39:20.535Z,0
2017-04-24T01:39:46.617Z,0
2017-04-24T01:40:12.742Z,0
2017-04-24T01:40:38.826Z,0
2017-04-24T01:41:04.905Z,0
2017-04-24T01:41:31.007Z,0
2017-04-24T01:41:57.110Z,0
2017-04-24T01:42:23.192Z,0
2017-04-24T01:42:49.295Z,0
2017-04-24T01:43:15.400Z,0
2017-04-24T01:43:41.529Z,0
2017-04-24T01:44:07.633Z,0
2017-04-24T01:44:33.733Z,0
2017-04-24T01:44:59.858Z,0
2017-04-24T01:45:25.985Z,0
2017-04-24T01:45:52.064Z,0
2017-04-24T01:46:18.145Z,0
2017-04-24T01:46:44.224Z,0
2017-04-24T01:47:10.304Z,0
2017-04-24T01:47:36.384Z,0
2017-04-24T01:48:02.512Z,0
2017-04-24T01:48:28.636Z,0
2017-04-24T01:48:54.740Z,0
2017-04-24T01:49:20.843Z,0
2017-04-24T01:49:46.969Z,0
2017-04-24T01:50:13.070Z,0
2017-04-24T01:50:39.177Z,0
2017-04-24T01:51:05.258Z,0
2017-04-24T01:51:31.338Z,0
2017-04-24T01:51:57.437Z,0
2017-04-24T01:52:23.519Z,0
2017-04-24T01:52:49.648Z,0
2017-04-24T01:53:15.774Z,0
2017-04-24T01:53:41.880Z,0
2017-04-24T01:54:07.959Z,0
2017-04-24T01:54:34.117Z,0
2017-04-24T01:55:00.210Z,0
2017-04-24T01:55:26.291Z,0
2017-04-24T01:55:52.373Z,0
2017-04-24T01:56:18.475Z,0
2017-04-24T01:56:44.600Z,0
2017-04-24T01:57:10.660Z,0
2017-04-24T01:57:36.761Z,0
2017-04-24T01:58:02.891Z,0
2017-04-24T01:58:28.973Z,0
2017-04-24T01:58:55.056Z,0
2017-04-24T01:59:21.181Z,0
2017-04-24T01:59:47.283Z,0
2017-04-24T02:00:13.406Z,0
2017-04-24T02:00:39.489Z,0
2017-04-24T02:01:05.593Z,0
2017-04-24T02:01:31.697Z,0
2017-04-24T02:01:57.804Z,0
2017-04-24T02:02:23.932Z,0
2017-04-24T02:02:50.036Z,0
2017-04-24T02:03:16.116Z,0
2017-04-24T02:03:42.216Z,0
2017-04-24T02:04:08.365Z,0
2017-04-24T02:04:34.470Z,0
2017-04-24T02:05:00.574Z,0
2017-04-24T02:05:26.655Z,0
2017-04-24T02:05:52.737Z,0
2017-04-24T02:06:18.816Z,0
2017-04-24T02:06:44.897Z,0
2017-04-24T02:07:10.982Z,0
2017-04-24T02:07:37.082Z,0
2017-04-24T02:08:03.186Z,0
2017-04-24T02:08:29.309Z,0
2017-04-24T02:08:55.411Z,0
2017-04-24T02:09:21.492Z,0
2017-04-24T02:09:47.599Z,0
2017-04-24T02:10:13.729Z,0
2017-04-24T02:10:39.833Z,0
2017-04-24T02:11:05.913Z,0
2017-04-24T02:11:31.992Z,0
2017-04-24T02:11:58.070Z,0
2017-04-24T02:12:24.176Z,0
2017-04-24T02:12:50.282Z,0
2017-04-24T02:13:16.385Z,0
2017-04-24T02:13:42.533Z,0
2017-04-24T02:14:08.702Z,0
2017-04-24T02:14:34.782Z,0
2017-04-24T02:15:00.862Z,0
2017-04-24T02:15:26.942Z,0
2017-04-24T02:15:53.040Z,0
2017-04-24T02:16:19.142Z,0
2017-04-24T02:16:45.219Z,0
2017-04-24T02:17:11.298Z,0
2017-04-24T02:17:37.376Z,0
2017-04-24T02:18:03.505Z,0
2017-04-24T02:18:29.605Z,0
2017-04-24T02:18:55.734Z,0
2017-04-24T02:19:21.860Z,0
2017-04-24T02:19:47.985Z,0
2017-04-24T02:20:14.090Z,0
2017-04-24T02:20:40.213Z,0
2017-04-24T02:21:06.293Z,0
2017-04-24T02:21:32.374Z,0
2017-04-24T02:21:58.455Z,0
2017-04-24T02:22:24.580Z,0
2017-04-24T02:22:50.683Z,0
2017-04-24T02:23:16.763Z,0
2017-04-24T02:23:42.890Z,0
2017-04-24T02:24:09.018Z,0
2017-04-24T02:24:35.146Z,0
2017-04-24T02:25:01.249Z,0
2017-04-24T02:25:27.355Z,0
2017-04-24T02:25:53.486Z,0
2017-04-24T02:26:19.590Z,0
2017-04-24T02:26:45.717Z,0
2017-04-24T02:27:11.826Z,0
2017-04-24T02:27:37.904Z,0
2017-04-24T02:28:04.028Z,0
2017-04-24T02:28:30.129Z,0
2017-04-24T02:28:56.211Z,0
2017-04-24T02:29:22.336Z,0
2017-04-24T02:29:48.440Z,0
2017-04-24T02:30:14.543Z,0
2017-04-24T02:30:40.623Z,0
2017-04-24T02:31:06.703Z,0
2017-04-24T02:31:32.785Z,0
2017-04-24T02:31:58.886Z,0
2017-04-24T02:32:24.968Z,0
2017-04-24T02:32:51.073Z,0
2017-04-24T02:33:17.175Z,0
2017-04-24T02:33:43.324Z,0
2017-04-24T02:34:09.451Z,0
2017-04-24T02:34:35.531Z,0
2017-04-24T02:35:01.611Z,0
2017-04-24T02:35:27.691Z,0
2017-04-24T02:35:53.773Z,0
2017-04-24T02:36:19.880Z,0
2017-04-24T02:36:45.960Z,0
2017-04-24T02:37:12.042Z,0
2017-04-24T02:37:38.145Z,0
2017-04-24T02:38:04.223Z,0
2017-04-24T02:38:30.374Z,0
2017-04-24T02:38:56.479Z,0
2017-04-24T02:39:22.582Z,0
2017-04-24T02:39:48.709Z,0
2017-04-24T02:40:14.815Z,0
2017-04-24T02:40:40.892Z,0
2017-04-24T02:41:06.993Z,0
2017-04-24T02:41:33.093Z,0
2017-04-24T02:41:59.196Z,0
2017-04-24T02:42:25.323Z,0
2017-04-24T02:42:51.403Z,0
2017-04-24T02:43:17.507Z,0
2017-04-24T02:43:43.653Z,0
2017-04-24T02:44:09.783Z,0
2017-04-24T02:44:35.929Z,0
2017-04-24T02:45:02.011Z,0
2017-04-24T02:45:28.135Z,0
2017-04-24T02:45:54.238Z,0
2017-04-24T02:46:20.319Z,0
2017-04-24T02:46:46.421Z,0
2017-04-24T02:47:12.565Z,0
2017-04-24T02:47:38.647Z,0
2017-04-24T02:48:04.751Z,0
2017-04-24T02:48:30.879Z,0
2017-04-24T02:48:57.027Z,0
2017-04-24T02:49:23.130Z,0
2017-04-24T02:49:49.233Z,0
2017-04-24T02:50:15.338Z,0
2017-04-24T02:50:41.466Z,0
2017-04-24T02:51:07.550Z,0
2017-04-24T02:51:33.652Z,0
2017-04-24T02:51:59.761Z,0
2017-04-24T02:52:25.836Z,0
2017-04-24T02:52:51.915Z,0
2017-04-24T02:53:18.063Z,0
2017-04-24T02:53:44.166Z,0
2017-04-24T02:54:10.269Z,0
2017-04-24T02:54:36.349Z,0
2017-04-24T02:55:02.449Z,0
2017-04-24T02:55:28.529Z,0
2017-04-24T02:55:54.635Z,0
2017-04-24T02:56:20.721Z,0
2017-04-24T02:56:46.794Z,0
2017-04-24T02:57:12.898Z,0
2017-04-24T02:57:39.004Z,0
2017-04-24T02:58:05.093Z,0
2017-04-24T02:58:31.236Z,0
2017-04-24T02:58:57.335Z,0
2017-04-24T02:59:23.438Z,0
2017-04-24T02:59:49.520Z,0
2017-04-24T03:00:15.622Z,0
2017-04-24T03:00:41.730Z,0
2017-04-24T03:01:07.830Z,0
2017-04-24T03:01:33.933Z,0
2017-04-24T03:02:00.012Z,0
2017-04-24T03:02:26.116Z,0
2017-04-24T03:02:52.239Z,0
2017-04-24T03:03:18.365Z,0
2017-04-24T03:03:44.471Z,0
2017-04-24T03:04:10.594Z,0
2017-04-24T03:04:36.721Z,0
2017-04-24T03:05:02.850Z,0
2017-04-24T03:05:28.954Z,0
2017-04-24T03:05:55.077Z,0
2017-04-24T03:06:21.179Z,0
2017-04-24T03:06:47.306Z,0
2017-04-24T03:07:13.386Z,0
2017-04-24T03:07:39.514Z,0
2017-04-24T03:08:05.668Z,0
2017-04-24T03:08:31.771Z,0
2017-04-24T03:08:57.921Z,0
2017-04-24T03:09:24.042Z,0
2017-04-24T03:09:50.122Z,0
2017-04-24T03:10:16.226Z,0
2017-04-24T03:10:42.329Z,0
2017-04-24T03:11:08.430Z,0
2017-04-24T03:11:34.508Z,0
2017-04-24T03:12:00.586Z,0
2017-04-24T03:12:26.690Z,0
2017-04-24T03:12:52.794Z,0
2017-04-24T03:13:18.948Z,0
2017-04-24T03:13:45.052Z,0
2017-04-24T03:14:11.134Z,0
2017-04-24T03:14:37.240Z,0
2017-04-24T03:15:03.364Z,0
2017-04-24T03:15:29.444Z,0
2017-04-24T03:15:55.522Z,0
2017-04-24T03:16:21.604Z,0
2017-04-24T03:16:47.686Z,0
2017-04-24T03:17:13.791Z,0
2017-04-24T03:17:39.891Z,0
2017-04-24T03:18:05.994Z,0
2017-04-24T03:18:32.122Z,0
2017-04-24T03:18:58.203Z,0
2017-04-24T03:19:24.332Z,0
2017-04-24T03:19:50.410Z,0
2017-04-24T03:20:16.488Z,0
2017-04-24T03:20:42.605Z,0
2017-04-24T03:21:08.672Z,0
2017-04-24T03:21:34.752Z,0
2017-04-24T03:22:00.856Z,0
2017-04-24T03:22:26.956Z,0
2017-04-24T03:22:53.037Z,0
2017-04-24T03:23:19.145Z,0
2017-04-24T03:23:45.318Z,0
2017-04-24T03:24:11.421Z,0
2017-04-24T03:24:37.550Z,0
2017-04-24T03:25:03.654Z,0
2017-04-24T03:25:29.735Z,0
2017-04-24T03:25:55.815Z,0
2017-04-24T03:26:21.915Z,0
2017-04-24T03:26:48.018Z,0
2017-04-24T03:27:14.146Z,0
2017-04-24T03:27:40.225Z,0
2017-04-24T03:28:06.326Z,0
2017-04-24T03:28:32.452Z,0
2017-04-24T03:28:58.581Z,0
2017-04-24T03:29:24.683Z,0
2017-04-24T03:29:50.784Z,0
2017-04-24T03:30:16.863Z,0
2017-04-24T03:30:42.967Z,0
2017-04-24T03:31:09.069Z,0
2017-04-24T03:31:35.150Z,0
2017-04-24T03:32:01.253Z,0
2017-04-24T03:32:27.357Z,0
2017-04-24T03:32:53.438Z,0
2017-04-24T03:33:19.564Z,0
2017-04-24T03:33:45.692Z,0
2017-04-24T03:34:11.821Z,0
2017-04-24T03:34:37.948Z,0
2017-04-24T03:35:04.051Z,0
2017-04-24T03:35:30.155Z,0
2017-04-24T03:35:56.259Z,0
2017-04-24T03:36:22.340Z,0
2017-04-24T03:36:48.422Z,0
2017-04-24T03:37:14.498Z,4
2017-04-24T03:37:40.603Z,4
2017-04-24T03:38:06.729Z,4
2017-04-24T03:38:32.853Z,4
2017-04-24T03:38:58.979Z,4
2017-04-24T03:39:25.130Z,4
2017-04-24T03:39:51.258Z,4
2017-04-24T03:40:17.381Z,0
2017-04-24T03:40:43.483Z,0
2017-04-24T03:41:09.586Z,4
2017-04-24T03:41:35.689Z,4
2017-04-24T03:42:01.772Z,4
2017-04-24T03:42:27.884Z,4
2017-04-24T03:42:54.050Z,4
2017-04-24T03:43:20.153Z,8
2017-04-24T03:43:46.279Z,4
2017-04-24T03:44:12.380Z,4
2017-04-24T03:44:38.551Z,4
2017-04-24T03:45:04.631Z,8
2017-04-24T03:45:30.711Z,8
2017-04-24T03:45:56.794Z,4
2017-04-24T03:46:22.874Z,8
2017-04-24T03:46:48.998Z,8
2017-04-24T03:47:15.079Z,12
2017-04-24T03:47:41.184Z,8
2017-04-24T03:48:07.326Z,12
2017-04-24T03:48:33.455Z,12
2017-04-24T03:48:59.581Z,12
2017-04-24T03:49:25.684Z,16
2017-04-24T03:49:51.788Z,12
2017-04-24T03:50:17.887Z,16
2017-04-24T03:50:43.989Z,16
2017-04-24T03:51:10.091Z,16
2017-04-24T03:51:36.193Z,20
2017-04-24T03:52:02.273Z,20
2017-04-24T03:52:28.379Z,20
2017-04-24T03:52:54.457Z,20
2017-04-24T03:53:20.565Z,24
2017-04-24T03:53:46.668Z,28
2017-04-24T03:54:12.763Z,32
2017-04-24T03:54:38.865Z,28
2017-04-24T03:55:04.969Z,32
2017-04-24T03:55:31.097Z,36
2017-04-24T03:55:57.181Z,36
2017-04-24T03:56:23.305Z,40
2017-04-24T03:56:49.408Z,40
2017-04-24T03:57:15.487Z,48
2017-04-24T03:57:41.569Z,48
2017-04-24T03:58:07.713Z,52
2017-04-24T03:58:33.840Z,56
2017-04-24T03:58:59.943Z,56
2017-04-24T03:59:26.066Z,60
2017-04-24T03:59:52.147Z,64
2017-04-24T04:00:18.275Z,68
2017-04-24T04:00:44.376Z,76
2017-04-24T04:01:10.454Z,76
2017-04-24T04:01:36.556Z,84
2017-04-24T04:02:02.681Z,88
2017-04-24T04:02:28.764Z,92
2017-04-24T04:02:54.912Z,100
2017-04-24T04:03:21.017Z,108
2017-04-24T04:03:47.165Z,112
2017-04-24T04:04:13.311Z,120
2017-04-24T04:04:39.413Z,124
2017-04-24T04:05:05.515Z,132
2017-04-24T04:05:31.615Z,140
2017-04-24T04:05:57.694Z,148
2017-04-24T04:06:23.772Z,156
2017-04-24T04:06:49.875Z,164
2017-04-24T04:07:15.955Z,172
2017-04-24T04:07:42.082Z,176
2017-04-24T04:08:08.186Z,188
2017-04-24T04:08:34.294Z,200
2017-04-24T04:09:00.436Z,204
2017-04-24T04:09:26.578Z,216
2017-04-24T04:09:52.680Z,224
2017-04-24T04:10:18.783Z,232
2017-04-24T04:10:44.863Z,248
2017-04-24T04:11:10.942Z,256
2017-04-24T04:11:37.022Z,268
2017-04-24T04:12:03.126Z,280
2017-04-24T04:12:29.230Z,288
2017-04-24T04:12:55.355Z,304
2017-04-24T04:13:21.456Z,316
2017-04-24T04:13:47.560Z,328
2017-04-24T04:14:13.661Z,340
2017-04-24T04:14:39.741Z,356
2017-04-24T04:15:05.821Z,368
2017-04-24T04:15:31.901Z,380
2017-04-24T04:15:58.002Z,396
2017-04-24T04:16:24.083Z,412
2017-04-24T04:16:50.229Z,424
2017-04-24T04:17:16.329Z,440
2017-04-24T04:17:42.409Z,460
2017-04-24T04:18:08.513Z,472
2017-04-24T04:18:34.594Z,492
2017-04-24T04:19:00.718Z,504
2017-04-24T04:19:26.821Z,524
2017-04-24T04:19:52.902Z,540
2017-04-24T04:20:19.006Z,560
2017-04-24T04:20:45.086Z,580
2017-04-24T04:21:11.163Z,600
2017-04-24T04:21:37.242Z,620
2017-04-24T04:22:03.367Z,640
2017-04-24T04:22:29.449Z,664
2017-04-24T04:22:55.550Z,684
2017-04-24T04:23:21.653Z,708
2017-04-24T04:23:47.828Z,732
2017-04-24T04:24:13.930Z,752
2017-04-24T04:24:40.012Z,776
2017-04-24T04:25:06.160Z,800
2017-04-24T04:25:32.240Z,824
2017-04-24T04:25:58.318Z,844
2017-04-24T04:26:24.397Z,868
2017-04-24T04:26:50.499Z,892
2017-04-24T04:27:16.579Z,920
2017-04-24T04:27:42.660Z,948
2017-04-24T04:28:08.810Z,972
2017-04-24T04:28:34.934Z,1000
2017-04-24T04:29:01.033Z,1024
2017-04-24T04:29:27.141Z,1052
2017-04-24T04:29:53.248Z,1080
2017-04-24T04:30:19.352Z,1108
2017-04-24T04:30:45.430Z,1136
2017-04-24T04:31:11.513Z,1164
2017-04-24T04:31:37.615Z,1192
2017-04-24T04:32:03.717Z,1220
2017-04-24T04:32:29.797Z,1248
2017-04-24T04:32:55.902Z,1280
2017-04-24T04:33:22.021Z,1308
2017-04-24T04:33:48.134Z,1336
2017-04-24T04:34:14.236Z,1364
2017-04-24T04:34:40.339Z,1396
2017-04-24T04:35:06.443Z,1424
2017-04-24T04:35:32.523Z,1460
2017-04-24T04:35:58.603Z,1484
2017-04-24T04:36:24.706Z,1516
2017-04-24T04:36:50.832Z,1548
2017-04-24T04:37:16.913Z,1584
2017-04-24T04:37:43.040Z,1616
2017-04-24T04:38:09.192Z,1648
2017-04-24T04:38:35.319Z,1684
2017-04-24T04:39:01.443Z,1716
2017-04-24T04:39:27.567Z,1752
2017-04-24T04:39:53.670Z,1788
2017-04-24T04:40:19.770Z,1820
2017-04-24T04:40:45.871Z,1852
2017-04-24T04:41:11.997Z,1888
2017-04-24T04:41:38.077Z,1928
2017-04-24T04:42:04.181Z,1960
2017-04-24T04:42:30.284Z,1992
2017-04-24T04:42:56.411Z,2024
2017-04-24T04:43:22.512Z,2060
2017-04-24T04:43:48.638Z,2092
2017-04-24T04:44:14.763Z,2124
2017-04-24T04:44:40.913Z,2160
2017-04-24T04:45:06.993Z,2196
2017-04-24T04:45:33.073Z,2232
2017-04-24T04:45:59.152Z,2268
2017-04-24T04:46:25.252Z,2308
2017-04-24T04:46:51.354Z,2348
2017-04-24T04:47:17.435Z,2392
2017-04-24T04:47:43.520Z,2432
2017-04-24T04:48:09.647Z,2476
2017-04-24T04:48:35.800Z,2520
2017-04-24T04:49:01.901Z,2568
2017-04-24T04:49:28.051Z,2616
2017-04-24T04:49:54.153Z,2676
2017-04-24T04:50:20.256Z,2744
2017-04-24T04:50:46.336Z,2816
2017-04-24T04:51:12.415Z,2888
2017-04-24T04:51:38.495Z,2968
2017-04-24T04:52:04.580Z,3056
2017-04-24T04:52:30.705Z,3148
2017-04-24T04:52:56.785Z,3240
2017-04-24T04:53:22.912Z,3340
2017-04-24T04:53:49.014Z,3428
2017-04-24T04:54:15.119Z,3508
2017-04-24T04:54:41.221Z,3576
2017-04-24T04:55:07.350Z,3640
2017-04-24T04:55:33.430Z,3700
2017-04-24T04:55:59.513Z,3748
2017-04-24T04:56:25.616Z,3792
2017-04-24T04:56:51.768Z,3832
2017-04-24T04:57:17.868Z,3884
2017-04-24T04:57:43.971Z,3940
2017-04-24T04:58:10.075Z,3996
2017-04-24T04:58:36.203Z,4048
2017-04-24T04:59:02.309Z,4084
2017-04-24T04:59:28.437Z,4112
2017-04-24T04:59:54.540Z,4132
2017-04-24T05:00:20.643Z,4144
2017-04-24T05:00:46.724Z,4152
2017-04-24T05:01:12.826Z,4160
2017-04-24T05:01:38.928Z,4180
2017-04-24T05:02:05.008Z,4196
2017-04-24T05:02:31.111Z,4212
2017-04-24T05:02:57.243Z,4236
2017-04-24T05:03:23.344Z,4268
2017-04-24T05:03:49.446Z,4284
2017-04-24T05:04:15.550Z,4292
2017-04-24T05:04:41.674Z,4284
2017-04-24T05:05:07.797Z,4272
2017-04-24T05:05:33.879Z,4260
2017-04-24T05:05:59.959Z,4264
2017-04-24T05:06:26.061Z,4268
2017-04-24T05:06:52.141Z,4288
2017-04-24T05:07:18.270Z,4320
2017-04-24T05:07:44.351Z,4328
2017-04-24T05:08:10.428Z,4304
2017-04-24T05:08:36.556Z,4324
2017-04-24T05:09:02.657Z,4460
2017-04-24T05:09:28.758Z,4668
2017-04-24T05:09:54.841Z,4880
2017-04-24T05:10:20.970Z,5068
2017-04-24T05:10:47.071Z,5244
2017-04-24T05:11:13.151Z,5416
2017-04-24T05:11:39.256Z,5612
2017-04-24T05:12:05.356Z,5828
2017-04-24T05:12:31.437Z,6004
2017-04-24T05:12:57.563Z,6128
2017-04-24T05:13:23.667Z,6236
2017-04-24T05:13:49.746Z,6316
2017-04-24T05:14:15.851Z,6388
2017-04-24T05:14:41.957Z,6416
2017-04-24T05:15:08.111Z,6420
2017-04-24T05:15:34.212Z,6432
2017-04-24T05:16:00.294Z,6448
2017-04-24T05:16:26.375Z,6456
2017-04-24T05:16:52.454Z,6436
2017-04-24T05:17:18.579Z,6384
2017-04-24T05:17:44.686Z,6308
2017-04-24T05:18:10.790Z,6208
2017-04-24T05:18:36.896Z,6116
2017-04-24T05:19:03.020Z,6044
2017-04-24T05:19:29.123Z,5992
2017-04-24T05:19:55.226Z,5936
2017-04-24T05:20:21.306Z,5900
2017-04-24T05:20:47.384Z,5848
2017-04-24T05:21:13.493Z,5800
2017-04-24T05:21:39.592Z,5760
2017-04-24T05:22:05.673Z,5716
2017-04-24T05:22:31.778Z,5652
2017-04-24T05:22:57.883Z,5600
2017-04-24T05:23:23.986Z,5580
2017-04-24T05:23:50.065Z,5608
2017-04-24T05:24:16.193Z,5648
2017-04-24T05:24:42.297Z,5668
2017-04-24T05:25:08.378Z,5680
2017-04-24T05:25:34.457Z,5736
2017-04-24T05:26:00.535Z,5800
2017-04-24T05:26:26.640Z,5888
2017-04-24T05:26:52.763Z,5960
2017-04-24T05:27:18.844Z,6056
2017-04-24T05:27:44.951Z,6156
2017-04-24T05:28:11.079Z,6248
2017-04-24T05:28:37.181Z,6336
2017-04-24T05:29:03.289Z,6412
2017-04-24T05:29:29.410Z,6488
2017-04-24T05:29:55.491Z,6552
2017-04-24T05:30:21.594Z,6624
2017-04-24T05:30:47.697Z,6664
2017-04-24T05:31:13.801Z,6668
2017-04-24T05:31:39.902Z,6612
2017-04-24T05:32:05.988Z,6520
2017-04-24T05:32:32.091Z,6412
2017-04-24T05:32:58.193Z,6316
2017-04-24T05:33:24.342Z,6224
2017-04-24T05:33:50.445Z,6160
2017-04-24T05:34:16.549Z,6112
2017-04-24T05:34:42.675Z,6096
2017-04-24T05:35:08.825Z,6128
2017-04-24T05:35:34.916Z,6228
2017-04-24T05:36:01.011Z,6312
2017-04-24T05:36:27.092Z,6392
2017-04-24T05:36:53.191Z,6432
2017-04-24T05:37:19.272Z,6476
2017-04-24T05:37:45.350Z,6584
2017-04-24T05:38:11.433Z,6676
2017-04-24T05:38:37.560Z,6756
2017-04-24T05:39:03.662Z,6876
2017-04-24T05:39:29.812Z,7024
2017-04-24T05:39:55.962Z,7096
2017-04-24T05:40:22.066Z,7104
2017-04-24T05:40:48.147Z,7096
2017-04-24T05:41:14.251Z,7116
2017-04-24T05:41:40.333Z,7128
2017-04-24T05:42:06.435Z,7136
2017-04-24T05:42:32.515Z,7108
2017-04-24T05:42:58.644Z,7080
2017-04-24T05:43:24.774Z,7120
2017-04-24T05:43:50.860Z,7204
2017-04-24T05:44:16.984Z,7320
2017-04-24T05:44:43.110Z,7436
2017-04-24T05:45:09.256Z,7520
2017-04-24T05:45:35.335Z,7640
2017-04-24T05:46:01.417Z,7844
2017-04-24T05:46:27.499Z,8080
2017-04-24T05:46:53.581Z,8316
2017-04-24T05:47:19.685Z,8472
2017-04-24T05:47:45.815Z,8568
2017-04-24T05:48:11.921Z,8700
2017-04-24T05:48:38.020Z,8604
2017-04-24T05:49:04.099Z,8832
2017-04-24T05:49:30.227Z,9000
2017-04-24T05:49:56.335Z,9044
2017-04-24T05:50:22.437Z,9060
2017-04-24T05:50:48.562Z,9124
2017-04-24T05:51:14.643Z,9216
2017-04-24T05:51:40.792Z,9284
2017-04-24T05:52:06.896Z,9364
2017-04-24T05:52:32.977Z,9524
2017-04-24T05:52:59.081Z,9740
2017-04-24T05:53:25.180Z,9932
2017-04-24T05:53:51.352Z,10000
2017-04-24T05:54:17.435Z,10092
2017-04-24T05:54:43.515Z,10152
2017-04-24T05:55:09.598Z,10184
2017-04-24T05:55:35.678Z,10204
2017-04-24T05:56:01.781Z,10252
2017-04-24T05:56:27.886Z,10404
2017-04-24T05:56:53.987Z,10660
2017-04-24T05:57:20.069Z,10996
2017-04-24T05:57:46.148Z,11300
2017-04-24T05:58:12.250Z,11624
2017-04-24T05:58:38.354Z,11820
2017-04-24T05:59:04.458Z,11900
2017-04-24T05:59:30.588Z,11920
2017-04-24T05:59:56.672Z,11964
2017-04-24T06:00:22.778Z,12012
2017-04-24T06:00:48.883Z,12148
2017-04-24T06:01:14.963Z,12248
2017-04-24T06:01:41.068Z,12404
2017-04-24T06:02:07.173Z,12588
2017-04-24T06:02:33.255Z,12668
2017-04-24T06:02:59.383Z,12716
2017-04-24T06:03:25.536Z,12740
2017-04-24T06:03:51.642Z,12844
2017-04-24T06:04:17.771Z,12980
2017-04-24T06:04:43.853Z,13128
2017-04-24T06:05:09.956Z,13292
2017-04-24T06:05:36.056Z,13432
2017-04-24T06:06:02.163Z,13484
2017-04-24T06:06:28.268Z,13456
2017-04-24T06:06:54.350Z,13376
2017-04-24T06:07:20.452Z,13272
2017-04-24T06:07:46.555Z,13120
2017-04-24T06:08:12.659Z,12964
2017-04-24T06:08:38.789Z,12844
2017-04-24T06:09:04.920Z,12636
2017-04-24T06:09:31.024Z,12248
2017-04-24T06:09:57.129Z,11844
2017-04-24T06:10:23.231Z,11428
2017-04-24T06:10:49.333Z,10984
2017-04-24T06:11:15.438Z,10556